Nicholas L — WDE7436 — position and weather

sailwx.info

Track history (hours):
 
Tides and Currents Weather Stations Pressure Air Temp Water Temp Dewpoint Dewpoint Depression Visibility Wind Speed Wind Dir Waves Ship Positions

Nicholas L

Owner: SO. CAL. SHIP SERVICES, TERMINAL ISLAND, CA. More information available from US FCC via Universal Licensing System and Coast Guard Vessel Documentation Center.

Last reported at 2018-May-26 04:00 UTC. Time now 2018-May-26 04:22 UTC.
Position N 33°44' W 118°16'.

Length 31 m; draft 2.4 m.

Type: Port tender. MMSI: 367393270.

Date/timePositionNaut miles runAvg speedWind from/ knotsBaromVisibWave heightAir tempDewpointWater temp
2018-May-26 04:00N 33°44' W 118°16'0 0.0
2018-May-26 03:30N 33°44' W 118°16'0 0.0
2018-May-26 03:00N 33°44' W 118°16'0 0.0
2018-May-26 02:30N 33°44' W 118°16'0 0.0
2018-May-26 02:00N 33°44' W 118°16'0 0.0
2018-May-26 01:30N 33°44' W 118°16'0 0.0
2018-May-26 01:00N 33°44' W 118°16'0 0.0
2018-May-26 00:30N 33°44' W 118°16'0 0.0
2018-May-26 00:00N 33°44' W 118°16'0 0.0
2018-May-25 23:30N 33°44' W 118°16'0 0.0
2018-May-25 23:00N 33°44' W 118°16'0 0.0
2018-May-25 22:30N 33°44' W 118°16'0 0.0
2018-May-25 22:00N 33°44' W 118°16'0 0.0
2018-May-25 21:30N 33°44' W 118°16'0 0.0
2018-May-25 21:00N 33°44' W 118°16'0 0.0
2018-May-25 20:30N 33°44' W 118°16'0 0.0
2018-May-25 20:00N 33°44' W 118°16'0 0.0
2018-May-25 19:30N 33°44' W 118°16'0 0.0
2018-May-25 19:00N 33°44' W 118°16'0 0.0
2018-May-25 18:30N 33°44' W 118°16'0 0.0
2018-May-25 18:00N 33°44' W 118°16'0 0.0
2018-May-25 17:30N 33°44' W 118°16'0 0.0
2018-May-25 17:00N 33°44' W 118°16'0 0.0
2018-May-25 16:30N 33°44' W 118°16'0 0.0
2018-May-25 16:00N 33°44' W 118°16'0 0.0
2018-May-25 15:30N 33°44' W 118°16'0 0.0
2018-May-25 15:00N 33°44' W 118°16'0 0.0
2018-May-25 14:30N 33°44' W 118°16'0 0.0
2018-May-25 14:00N 33°44' W 118°16'0 0.0
2018-May-25 13:30N 33°44' W 118°16'0 0.0
2018-May-25 13:00N 33°44' W 118°16'0 0.0
2018-May-25 12:30N 33°44' W 118°16'0 0.0
2018-May-25 12:00N 33°44' W 118°16'0 0.0
2018-May-25 11:30N 33°44' W 118°16'0 0.0
2018-May-25 11:00N 33°44' W 118°16'0 0.0
2018-May-25 10:30N 33°44' W 118°16'0 0.0
2018-May-25 10:00N 33°44' W 118°16'0 0.0
2018-May-25 09:30N 33°44' W 118°16'0 0.0
2018-May-25 08:59N 33°44' W 118°16'0 0.0
2018-May-25 08:30N 33°44' W 118°16'0 0.0
2018-May-25 08:00N 33°44' W 118°16'0 0.0
2018-May-25 07:30N 33°44' W 118°16'0 0.0
2018-May-25 07:00N 33°44' W 118°16'0 0.0
2018-May-25 06:29N 33°44' W 118°16'2 4.2
2018-May-25 06:00N 33°42' W 118°15'1317.9
2018-May-25 05:18N 33°45' W 118°30'519.0
2018-May-25 05:00N 33°48' W 118°35'1018.9
2018-May-25 04:29N 33°53' W 118°46'918.7
2018-May-25 04:00N 33°57' W 118°55'1019.4
2018-May-25 03:30N 34°03' W 119°04'917.5
2018-May-25 03:01N 34°09' W 119°12'0 0.2
2018-May-25 02:30N 34°09' W 119°13'715.0
2018-May-25 02:00N 34°02' W 119°17'612.7
2018-May-25 01:30N 33°57' W 119°20'0 0.7
2018-May-25 01:00N 33°57' W 119°21'0 0.7
2018-May-25 00:29N 33°57' W 119°21'0 0.9
2018-May-25 00:00N 33°57' W 119°21'1 1.0
2018-May-24 23:30N 33°58' W 119°21'0 0.8
2018-May-24 22:58N 33°58' W 119°21'0 0.9
2018-May-24 22:29N 33°58' W 119°22'1 1.2
2018-May-24 22:00N 33°59' W 119°22'0 0.9
2018-May-24 21:28N 33°59' W 119°22'0 0.9
2018-May-24 21:00N 33°58' W 119°23'0 0.7
2018-May-24 20:28N 33°58' W 119°23'0 0.6
2018-May-24 20:00N 33°58' W 119°23'0 0.3
2018-May-24 19:25N 33°58' W 119°23'0 0.6
2018-May-24 18:57N 33°58' W 119°23'0 0.5
2018-May-24 18:15N 33°58' W 119°24'0 0.4
2018-May-24 17:53N 33°58' W 119°24'0 0.7
2018-May-24 17:25N 33°58' W 119°24'0 0.7
2018-May-24 16:59N 33°57' W 119°24'0 0.3
2018-May-24 16:30N 33°57' W 119°24'1 1.6
2018-May-24 16:00N 33°57' W 119°25'0 0.4
2018-May-24 15:28N 33°57' W 119°25'0 0.2
2018-May-24 15:00N 33°57' W 119°24'0 0.6
2018-May-24 14:30N 33°57' W 119°24'0 0.8
2018-May-24 14:00N 33°57' W 119°24'1 1.9
2018-May-24 13:29N 33°57' W 119°23'15 3.2
2018-May-24 09:00N 34°09' W 119°13'0 0.0
2018-May-24 08:30N 34°09' W 119°13'0 0.0
2018-May-24 08:00N 34°09' W 119°13'0 0.0
2018-May-24 07:30N 34°09' W 119°13'0 0.0
2018-May-24 07:00N 34°09' W 119°13'0 0.0
2018-May-24 06:30N 34°09' W 119°13'0 0.0
2018-May-24 05:58N 34°09' W 119°13'0 0.0
2018-May-24 05:30N 34°09' W 119°13'0 0.0
2018-May-24 05:00N 34°09' W 119°13'0 0.0
2018-May-24 04:28N 34°09' W 119°13'0 0.0
2018-May-24 04:00N 34°09' W 119°13'0 0.0
2018-May-24 03:30N 34°09' W 119°13'0 0.0
2018-May-24 03:00N 34°09' W 119°13'0 0.0
2018-May-24 02:30N 34°09' W 119°13'0 0.0
2018-May-24 02:00N 34°09' W 119°13'0 0.0
2018-May-24 01:30N 34°09' W 119°13'0 0.0
2018-May-24 01:00N 34°09' W 119°13'0 0.0
2018-May-24 00:30N 34°09' W 119°13'0 0.0
2018-May-23 23:56N 34°09' W 119°13'0 0.0
2018-May-23 23:29N 34°09' W 119°13'0 0.0
2018-May-23 23:00N 34°09' W 119°13'0 0.0
2018-May-23 22:30N 34°09' W 119°13'0 0.0
2018-May-23 22:00N 34°09' W 119°13'0 0.0
2018-May-23 21:29N 34°09' W 119°13'0 0.0
2018-May-23 21:00N 34°09' W 119°13'0 0.0
2018-May-23 20:30N 34°09' W 119°13'0 0.0
2018-May-23 20:00N 34°09' W 119°13'5 9.8
2018-May-23 19:31N 34°05' W 119°09'815.6
2018-May-23 19:00N 34°01' W 119°01'4015.8
2018-May-23 16:28N 33°42' W 118°18'3 6.4
2018-May-23 16:00N 33°44' W 118°16'0 0.0
2018-May-23 15:30N 33°44' W 118°16'0 0.0
2018-May-23 15:00N 33°44' W 118°16'0 0.0
2018-May-23 14:30N 33°44' W 118°16'0 0.0
2018-May-22 19:12N 33°44' W 118°16'0 0.0
2018-May-22 19:00N 33°44' W 118°16'0 0.0
2018-May-22 18:30N 33°44' W 118°16'0 0.7
2018-May-22 18:00N 33°44' W 118°16'0 0.7
2018-May-22 17:30N 33°44' W 118°16'714.2
2018-May-22 16:59N 33°38' W 118°11'4 8.4
2018-May-22 16:29N 33°35' W 118°08'1 1.6
2018-May-22 15:40N 33°34' W 118°07'1 2.8
2018-May-22 15:26N 33°34' W 118°07'512.5
2018-May-22 15:01N 33°39' W 118°11'713.8
2018-May-22 14:30N 33°44' W 118°16'0 0.0
2018-May-22 14:00N 33°44' W 118°16'612.5
2018-May-22 13:30N 33°39' W 118°11'0 0.2
2018-May-22 12:26N 33°39' W 118°11'613.8
2018-May-22 12:00N 33°44' W 118°16'0 0.0
2018-May-22 02:40N 33°44' W 118°16'0 0.0
2018-May-22 02:30N 33°44' W 118°16'0 0.0
2018-May-22 02:00N 33°44' W 118°16'2 3.0
2018-May-22 01:30N 33°43' W 118°15'1016.0
2018-May-22 00:53N 33°35' W 118°08'1 2.8
2018-May-22 00:26N 33°34' W 118°07'613.1
2018-May-22 00:00N 33°39' W 118°11'713.9
2018-May-21 23:30N 33°44' W 118°16'0 0.4
2018-May-21 23:00N 33°44' W 118°16'3 6.4
2018-May-21 22:30N 33°42' W 118°14'815.6
2018-May-21 21:58N 33°35' W 118°08'1 1.8
2018-May-21 21:25N 33°34' W 118°07'3 6.1
2018-May-21 21:00N 33°36' W 118°08'816.2
2018-May-21 20:30N 33°42' W 118°15'2 4.4
2018-May-21 20:00N 33°44' W 118°16'0 0.0
2018-May-21 19:30N 33°44' W 118°16'0 0.0
2018-May-21 19:00N 33°44' W 118°16'0 0.0
2018-May-21 18:30N 33°44' W 118°16'0 0.0
2018-May-21 18:00N 33°44' W 118°16'0 0.0
2018-May-21 17:30N 33°44' W 118°16'4 7.1
2018-May-21 17:00N 33°41' W 118°14'815.7
2018-May-21 16:30N 33°35' W 118°08'2 4.3
2018-May-21 16:00N 33°37' W 118°09'816.6
2018-May-21 15:30N 33°43' W 118°15'1 2.8
2018-May-21 15:01N 33°44' W 118°16'710.9
2018-May-21 14:24N 33°39' W 118°11'5 8.8
2018-May-21 13:49N 33°35' W 118°08'3 8.6
2018-May-21 13:30N 33°37' W 118°10'816.2
2018-May-21 13:01N 33°43' W 118°16'1 2.2
2018-May-21 12:29N 33°44' W 118°16'0 0.0
2018-May-21 12:00N 33°44' W 118°16'0 0.0
2018-May-21 02:56N 33°44' W 118°16'0 0.0
2018-May-21 02:31N 33°44' W 118°16'0 0.0
2018-May-21 02:00N 33°44' W 118°16'3 5.0
2018-May-21 01:30N 33°42' W 118°14'915.9
2018-May-21 00:56N 33°35' W 118°08'0 0.1
2018-May-20 22:41N 33°35' W 118°08'0 0.8
2018-May-20 22:13N 33°35' W 118°07'0 0.5
2018-May-20 22:00N 33°35' W 118°07'1 1.0
2018-May-20 21:25N 33°34' W 118°07'1 1.6
2018-May-20 20:51N 33°35' W 118°08'2 6.3
2018-May-20 20:30N 33°37' W 118°09'816.7
2018-May-20 20:00N 33°43' W 118°16'1 2.1
2018-May-20 19:31N 33°44' W 118°16'714.4
2018-May-20 19:00N 33°39' W 118°10'1 2.7
2018-May-20 18:30N 33°37' W 118°10'816.0
2018-May-20 18:00N 33°43' W 118°16'1 1.6
2018-May-20 17:30N 33°44' W 118°16'0 0.7
2018-May-20 17:00N 33°44' W 118°16'11 6.5
2018-May-20 15:22N 33°36' W 118°08'617.0
2018-May-20 15:00N 33°40' W 118°13'5 9.4
2018-May-20 14:30N 33°44' W 118°16'0 0.4
2018-May-20 14:00N 33°44' W 118°16'7 4.5
2018-May-20 12:29N 33°39' W 118°11'714.2
2018-May-20 12:00N 33°44' W 118°16'0 0.0
2018-May-20 01:51N 33°44' W 118°16'1 2.0
2018-May-20 01:30N 33°43' W 118°16'11 6.6
2018-May-19 23:50N 33°35' W 118°08'1 2.0
2018-May-19 23:24N 33°34' W 118°07'0 0.0
2018-May-19 22:40N 33°34' W 118°07'1 5.3
2018-May-19 22:30N 33°35' W 118°08'1 1.0
2018-May-19 21:19N 33°34' W 118°07'1 2.5
2018-May-19 20:49N 33°35' W 118°08'2 7.0
2018-May-19 20:30N 33°37' W 118°09'816.4
2018-May-19 20:00N 33°43' W 118°16'0 0.9
2018-May-19 19:31N 33°43' W 118°15'11 5.7
2018-May-19 17:35N 33°34' W 118°07'216.6
2018-May-19 17:29N 33°35' W 118°08'816.6
2018-May-19 17:01N 33°41' W 118°14'2 3.3
2018-May-19 16:31N 33°43' W 118°15'1110.4
2018-May-19 15:28N 33°34' W 118°07'613.2
2018-May-19 15:00N 33°39' W 118°12'713.1
2018-May-19 14:30N 33°44' W 118°16'0 0.5
2018-May-19 14:00N 33°44' W 118°16'714.3
2018-May-19 13:30N 33°38' W 118°11'4 6.5
2018-May-19 12:52N 33°35' W 118°08'614.6
2018-May-19 12:27N 33°40' W 118°12'612.5
2018-May-19 12:00N 33°44' W 118°16'0 0.0
2018-May-19 02:00N 33°44' W 118°16'1 1.2
2018-May-19 01:30N 33°44' W 118°16'8 6.2
2018-May-19 00:09N 33°37' W 118°10'216.8
2018-May-19 00:00N 33°39' W 118°12'612.9
2018-May-18 23:30N 33°44' W 118°16'0 0.0
2018-May-18 23:00N 33°44' W 118°16'10 5.5
2018-May-18 21:06N 33°36' W 118°08'415.9
2018-May-18 20:53N 33°40' W 118°06'615.0
2018-May-18 20:30N 33°45' W 118°09'5 9.6
2018-May-18 20:00N 33°43' W 118°14'2 3.9
2018-May-18 19:30N 33°44' W 118°16'0 0.0
2018-May-18 19:00N 33°44' W 118°16'0 0.0
2018-May-18 18:30N 33°44' W 118°16'0 0.0
2018-May-18 18:00N 33°44' W 118°16'0 0.8
2018-May-18 17:30N 33°44' W 118°17'0 0.1
2018-May-18 17:00N 33°44' W 118°16'4 8.2
2018-May-18 16:30N 33°41' W 118°13'7 6.8
2018-May-18 15:26N 33°35' W 118°08'615.1
2018-May-18 15:00N 33°40' W 118°13'5 9.9
2018-May-18 14:30N 33°44' W 118°16'2 3.2
2018-May-18 14:00N 33°43' W 118°15'6 3.9
2018-May-18 12:33N 33°38' W 118°11'116.9
2018-May-18 12:30N 33°39' W 118°12'713.1
2018-May-18 12:00N 33°44' W 118°16'0 0.0
2018-May-18 02:20N 33°44' W 118°16'2 7.3
2018-May-18 02:00N 33°42' W 118°14'7 5.6
2018-May-18 00:50N 33°37' W 118°09'516.4
2018-May-18 00:31N 33°41' W 118°13'4 6.9
2018-May-17 23:58N 33°44' W 118°16'2 3.7
2018-May-17 23:30N 33°43' W 118°15'10 5.0
2018-May-17 21:31N 33°35' W 118°08'1 7.5
2018-May-17 21:20N 33°36' W 118°09'516.3
2018-May-17 21:00N 33°40' W 118°13'5 9.8
2018-May-17 20:31N 33°44' W 118°16'2 4.2
2018-May-17 20:00N 33°42' W 118°15'7 4.1
2018-May-17 18:14N 33°36' W 118°10'415.9
2018-May-17 18:00N 33°39' W 118°12'611.5
2018-May-17 17:31N 33°44' W 118°16'1 2.6
2018-May-17 17:00N 33°43' W 118°16'12 9.5
2018-May-17 15:48N 33°34' W 118°07'2 5.3
2018-May-17 15:28N 33°35' W 118°08'715.9
2018-May-17 15:01N 33°41' W 118°13'4 7.5
2018-May-17 14:30N 33°44' W 118°16'1 2.1
2018-May-17 14:00N 33°43' W 118°16'8 5.5
2018-May-17 12:36N 33°37' W 118°10'216.2
2018-May-17 12:30N 33°39' W 118°11'713.7
2018-May-17 12:00N 33°44' W 118°16'0 0.0
2018-May-17 02:03N 33°44' W 118°16'0 0.0
2018-May-17 02:00N 33°44' W 118°16'5 9.4
2018-May-17 01:30N 33°40' W 118°13'710.4
2018-May-17 00:51N 33°35' W 118°08'0 0.6
2018-May-17 00:30N 33°35' W 118°08'611.5
2018-May-17 00:00N 33°39' W 118°12'612.2
2018-May-16 23:30N 33°44' W 118°16'0 0.0
2018-May-16 23:00N 33°44' W 118°16'0 0.8
2018-May-16 22:31N 33°44' W 118°16'1 1.5
2018-May-16 22:00N 33°43' W 118°16'11 8.6
2018-May-16 20:46N 33°35' W 118°08'414.9
2018-May-16 20:30N 33°38' W 118°11'714.9
2018-May-16 20:01N 33°44' W 118°16'0 0.5
2018-May-16 19:30N 33°44' W 118°16'11 3.3
2018-May-16 16:02N 33°35' W 118°08'0 0.2
2018-May-16 15:39N 33°35' W 118°08'0 0.6
2018-May-16 15:29N 33°35' W 118°08'714.3
2018-May-16 15:00N 33°40' W 118°13'5 9.5
2018-May-16 14:30N 33°44' W 118°16'1 1.0
2018-May-16 14:00N 33°44' W 118°16'1113.8
2018-May-16 13:12N 33°35' W 118°08'0 0.4
2018-May-16 12:43N 33°35' W 118°08'616.3
2018-May-16 12:22N 33°40' W 118°12'514.7
2018-May-16 12:00N 33°44' W 118°16'  
Track history (hours):
 
Tides and Currents Weather Stations Pressure Air Temp Water Temp Dewpoint Dewpoint Depression Visibility Wind Speed Wind Dir Waves Ship Positions

Nicholas L

Owner: SO. CAL. SHIP SERVICES, TERMINAL ISLAND, CA. More information available from US FCC via Universal Licensing System and Coast Guard Vessel Documentation Center.

Last reported at 2018-May-26 04:00 UTC. Time now 2018-May-26 04:22 UTC.
Position N 33°44' W 118°16'.

Length 31 m; draft 2.4 m.

Type: Port tender. MMSI: 367393270.

Date/timePositionNaut miles runAvg speedWind from/ knotsBaromVisibWave heightAir tempDewpointWater temp
2018-May-26 04:00N 33°44' W 118°16'0 0.0
2018-May-26 03:30N 33°44' W 118°16'0 0.0
2018-May-26 03:00N 33°44' W 118°16'0 0.0
2018-May-26 02:30N 33°44' W 118°16'0 0.0
2018-May-26 02:00N 33°44' W 118°16'0 0.0
2018-May-26 01:30N 33°44' W 118°16'0 0.0
2018-May-26 01:00N 33°44' W 118°16'0 0.0
2018-May-26 00:30N 33°44' W 118°16'0 0.0
2018-May-26 00:00N 33°44' W 118°16'0 0.0
2018-May-25 23:30N 33°44' W 118°16'0 0.0
2018-May-25 23:00N 33°44' W 118°16'0 0.0
2018-May-25 22:30N 33°44' W 118°16'0 0.0
2018-May-25 22:00N 33°44' W 118°16'0 0.0
2018-May-25 21:30N 33°44' W 118°16'0 0.0
2018-May-25 21:00N 33°44' W 118°16'0 0.0
2018-May-25 20:30N 33°44' W 118°16'0 0.0
2018-May-25 20:00N 33°44' W 118°16'0 0.0
2018-May-25 19:30N 33°44' W 118°16'0 0.0
2018-May-25 19:00N 33°44' W 118°16'0 0.0
2018-May-25 18:30N 33°44' W 118°16'0 0.0
2018-May-25 18:00N 33°44' W 118°16'0 0.0
2018-May-25 17:30N 33°44' W 118°16'0 0.0
2018-May-25 17:00N 33°44' W 118°16'0 0.0
2018-May-25 16:30N 33°44' W 118°16'0 0.0
2018-May-25 16:00N 33°44' W 118°16'0 0.0
2018-May-25 15:30N 33°44' W 118°16'0 0.0
2018-May-25 15:00N 33°44' W 118°16'0 0.0
2018-May-25 14:30N 33°44' W 118°16'0 0.0
2018-May-25 14:00N 33°44' W 118°16'0 0.0
2018-May-25 13:30N 33°44' W 118°16'0 0.0
2018-May-25 13:00N 33°44' W 118°16'0 0.0
2018-May-25 12:30N 33°44' W 118°16'0 0.0
2018-May-25 12:00N 33°44' W 118°16'0 0.0
2018-May-25 11:30N 33°44' W 118°16'0 0.0
2018-May-25 11:00N 33°44' W 118°16'0 0.0
2018-May-25 10:30N 33°44' W 118°16'0 0.0
2018-May-25 10:00N 33°44' W 118°16'0 0.0
2018-May-25 09:30N 33°44' W 118°16'0 0.0
2018-May-25 08:59N 33°44' W 118°16'0 0.0
2018-May-25 08:30N 33°44' W 118°16'0 0.0
2018-May-25 08:00N 33°44' W 118°16'0 0.0
2018-May-25 07:30N 33°44' W 118°16'0 0.0
2018-May-25 07:00N 33°44' W 118°16'0 0.0
2018-May-25 06:29N 33°44' W 118°16'2 4.2
2018-May-25 06:00N 33°42' W 118°15'1317.9
2018-May-25 05:18N 33°45' W 118°30'519.0
2018-May-25 05:00N 33°48' W 118°35'1018.9
2018-May-25 04:29N 33°53' W 118°46'918.7
2018-May-25 04:00N 33°57' W 118°55'1019.4
2018-May-25 03:30N 34°03' W 119°04'917.5
2018-May-25 03:01N 34°09' W 119°12'0 0.2
2018-May-25 02:30N 34°09' W 119°13'715.0
2018-May-25 02:00N 34°02' W 119°17'612.7
2018-May-25 01:30N 33°57' W 119°20'0 0.7
2018-May-25 01:00N 33°57' W 119°21'0 0.7
2018-May-25 00:29N 33°57' W 119°21'0 0.9
2018-May-25 00:00N 33°57' W 119°21'1 1.0
2018-May-24 23:30N 33°58' W 119°21'0 0.8
2018-May-24 22:58N 33°58' W 119°21'0 0.9
2018-May-24 22:29N 33°58' W 119°22'1 1.2
2018-May-24 22:00N 33°59' W 119°22'0 0.9
2018-May-24 21:28N 33°59' W 119°22'0 0.9
2018-May-24 21:00N 33°58' W 119°23'0 0.7
2018-May-24 20:28N 33°58' W 119°23'0 0.6
2018-May-24 20:00N 33°58' W 119°23'0 0.3
2018-May-24 19:25N 33°58' W 119°23'0 0.6
2018-May-24 18:57N 33°58' W 119°23'0 0.5
2018-May-24 18:15N 33°58' W 119°24'0 0.4
2018-May-24 17:53N 33°58' W 119°24'0 0.7
2018-May-24 17:25N 33°58' W 119°24'0 0.7
2018-May-24 16:59N 33°57' W 119°24'0 0.3
2018-May-24 16:30N 33°57' W 119°24'1 1.6
2018-May-24 16:00N 33°57' W 119°25'0 0.4
2018-May-24 15:28N 33°57' W 119°25'0 0.2
2018-May-24 15:00N 33°57' W 119°24'0 0.6
2018-May-24 14:30N 33°57' W 119°24'0 0.8
2018-May-24 14:00N 33°57' W 119°24'1 1.9
2018-May-24 13:29N 33°57' W 119°23'15 3.2
2018-May-24 09:00N 34°09' W 119°13'0 0.0
2018-May-24 08:30N 34°09' W 119°13'0 0.0
2018-May-24 08:00N 34°09' W 119°13'0 0.0
2018-May-24 07:30N 34°09' W 119°13'0 0.0
2018-May-24 07:00N 34°09' W 119°13'0 0.0
2018-May-24 06:30N 34°09' W 119°13'0 0.0
2018-May-24 05:58N 34°09' W 119°13'0 0.0
2018-May-24 05:30N 34°09' W 119°13'0 0.0
2018-May-24 05:00N 34°09' W 119°13'0 0.0
2018-May-24 04:28N 34°09' W 119°13'0 0.0
2018-May-24 04:00N 34°09' W 119°13'0 0.0
2018-May-24 03:30N 34°09' W 119°13'0 0.0
2018-May-24 03:00N 34°09' W 119°13'0 0.0
2018-May-24 02:30N 34°09' W 119°13'0 0.0
2018-May-24 02:00N 34°09' W 119°13'0 0.0
2018-May-24 01:30N 34°09' W 119°13'0 0.0
2018-May-24 01:00N 34°09' W 119°13'0 0.0
2018-May-24 00:30N 34°09' W 119°13'0 0.0
2018-May-23 23:56N 34°09' W 119°13'0 0.0
2018-May-23 23:29N 34°09' W 119°13'0 0.0
2018-May-23 23:00N 34°09' W 119°13'0 0.0
2018-May-23 22:30N 34°09' W 119°13'0 0.0
2018-May-23 22:00N 34°09' W 119°13'0 0.0
2018-May-23 21:29N 34°09' W 119°13'0 0.0
2018-May-23 21:00N 34°09' W 119°13'0 0.0
2018-May-23 20:30N 34°09' W 119°13'0 0.0
2018-May-23 20:00N 34°09' W 119°13'5 9.8
2018-May-23 19:31N 34°05' W 119°09'815.6
2018-May-23 19:00N 34°01' W 119°01'4015.8
2018-May-23 16:28N 33°42' W 118°18'3 6.4
2018-May-23 16:00N 33°44' W 118°16'0 0.0
2018-May-23 15:30N 33°44' W 118°16'0 0.0
2018-May-23 15:00N 33°44' W 118°16'0 0.0
2018-May-23 14:30N 33°44' W 118°16'0 0.0
2018-May-22 19:12N 33°44' W 118°16'0 0.0
2018-May-22 19:00N 33°44' W 118°16'0 0.0
2018-May-22 18:30N 33°44' W 118°16'0 0.7
2018-May-22 18:00N 33°44' W 118°16'0 0.7
2018-May-22 17:30N 33°44' W 118°16'714.2
2018-May-22 16:59N 33°38' W 118°11'4 8.4
2018-May-22 16:29N 33°35' W 118°08'1 1.6
2018-May-22 15:40N 33°34' W 118°07'1 2.8
2018-May-22 15:26N 33°34' W 118°07'512.5
2018-May-22 15:01N 33°39' W 118°11'713.8
2018-May-22 14:30N 33°44' W 118°16'0 0.0
2018-May-22 14:00N 33°44' W 118°16'612.5
2018-May-22 13:30N 33°39' W 118°11'0 0.2
2018-May-22 12:26N 33°39' W 118°11'613.8
2018-May-22 12:00N 33°44' W 118°16'0 0.0
2018-May-22 02:40N 33°44' W 118°16'0 0.0
2018-May-22 02:30N 33°44' W 118°16'0 0.0
2018-May-22 02:00N 33°44' W 118°16'2 3.0
2018-May-22 01:30N 33°43' W 118°15'1016.0
2018-May-22 00:53N 33°35' W 118°08'1 2.8
2018-May-22 00:26N 33°34' W 118°07'613.1
2018-May-22 00:00N 33°39' W 118°11'713.9
2018-May-21 23:30N 33°44' W 118°16'0 0.4
2018-May-21 23:00N 33°44' W 118°16'3 6.4
2018-May-21 22:30N 33°42' W 118°14'815.6
2018-May-21 21:58N 33°35' W 118°08'1 1.8
2018-May-21 21:25N 33°34' W 118°07'3 6.1
2018-May-21 21:00N 33°36' W 118°08'816.2
2018-May-21 20:30N 33°42' W 118°15'2 4.4
2018-May-21 20:00N 33°44' W 118°16'0 0.0
2018-May-21 19:30N 33°44' W 118°16'0 0.0
2018-May-21 19:00N 33°44' W 118°16'0 0.0
2018-May-21 18:30N 33°44' W 118°16'0 0.0
2018-May-21 18:00N 33°44' W 118°16'0 0.0
2018-May-21 17:30N 33°44' W 118°16'4 7.1
2018-May-21 17:00N 33°41' W 118°14'815.7
2018-May-21 16:30N 33°35' W 118°08'2 4.3
2018-May-21 16:00N 33°37' W 118°09'816.6
2018-May-21 15:30N 33°43' W 118°15'1 2.8
2018-May-21 15:01N 33°44' W 118°16'710.9
2018-May-21 14:24N 33°39' W 118°11'5 8.8
2018-May-21 13:49N 33°35' W 118°08'3 8.6
2018-May-21 13:30N 33°37' W 118°10'816.2
2018-May-21 13:01N 33°43' W 118°16'1 2.2
2018-May-21 12:29N 33°44' W 118°16'0 0.0
2018-May-21 12:00N 33°44' W 118°16'0 0.0
2018-May-21 02:56N 33°44' W 118°16'0 0.0
2018-May-21 02:31N 33°44' W 118°16'0 0.0
2018-May-21 02:00N 33°44' W 118°16'3 5.0
2018-May-21 01:30N 33°42' W 118°14'915.9
2018-May-21 00:56N 33°35' W 118°08'0 0.1
2018-May-20 22:41N 33°35' W 118°08'0 0.8
2018-May-20 22:13N 33°35' W 118°07'0 0.5
2018-May-20 22:00N 33°35' W 118°07'1 1.0
2018-May-20 21:25N 33°34' W 118°07'1 1.6
2018-May-20 20:51N 33°35' W 118°08'2 6.3
2018-May-20 20:30N 33°37' W 118°09'816.7
2018-May-20 20:00N 33°43' W 118°16'1 2.1
2018-May-20 19:31N 33°44' W 118°16'714.4
2018-May-20 19:00N 33°39' W 118°10'1 2.7
2018-May-20 18:30N 33°37' W 118°10'816.0
2018-May-20 18:00N 33°43' W 118°16'1 1.6
2018-May-20 17:30N 33°44' W 118°16'0 0.7
2018-May-20 17:00N 33°44' W 118°16'11 6.5
2018-May-20 15:22N 33°36' W 118°08'617.0
2018-May-20 15:00N 33°40' W 118°13'5 9.4
2018-May-20 14:30N 33°44' W 118°16'0 0.4
2018-May-20 14:00N 33°44' W 118°16'7 4.5
2018-May-20 12:29N 33°39' W 118°11'714.2
2018-May-20 12:00N 33°44' W 118°16'0 0.0
2018-May-20 01:51N 33°44' W 118°16'1 2.0
2018-May-20 01:30N 33°43' W 118°16'11 6.6
2018-May-19 23:50N 33°35' W 118°08'1 2.0
2018-May-19 23:24N 33°34' W 118°07'0 0.0
2018-May-19 22:40N 33°34' W 118°07'1 5.3
2018-May-19 22:30N 33°35' W 118°08'1 1.0
2018-May-19 21:19N 33°34' W 118°07'1 2.5
2018-May-19 20:49N 33°35' W 118°08'2 7.0
2018-May-19 20:30N 33°37' W 118°09'816.4
2018-May-19 20:00N 33°43' W 118°16'0 0.9
2018-May-19 19:31N 33°43' W 118°15'11 5.7
2018-May-19 17:35N 33°34' W 118°07'216.6
2018-May-19 17:29N 33°35' W 118°08'816.6
2018-May-19 17:01N 33°41' W 118°14'2 3.3
2018-May-19 16:31N 33°43' W 118°15'1110.4
2018-May-19 15:28N 33°34' W 118°07'613.2
2018-May-19 15:00N 33°39' W 118°12'713.1
2018-May-19 14:30N 33°44' W 118°16'0 0.5
2018-May-19 14:00N 33°44' W 118°16'714.3
2018-May-19 13:30N 33°38' W 118°11'4 6.5
2018-May-19 12:52N 33°35' W 118°08'614.6
2018-May-19 12:27N 33°40' W 118°12'612.5
2018-May-19 12:00N 33°44' W 118°16'0 0.0
2018-May-19 02:00N 33°44' W 118°16'1 1.2
2018-May-19 01:30N 33°44' W 118°16'8 6.2
2018-May-19 00:09N 33°37' W 118°10'216.8
2018-May-19 00:00N 33°39' W 118°12'612.9
2018-May-18 23:30N 33°44' W 118°16'0 0.0
2018-May-18 23:00N 33°44' W 118°16'10 5.5
2018-May-18 21:06N 33°36' W 118°08'415.9
2018-May-18 20:53N 33°40' W 118°06'615.0
2018-May-18 20:30N 33°45' W 118°09'5 9.6
2018-May-18 20:00N 33°43' W 118°14'2 3.9
2018-May-18 19:30N 33°44' W 118°16'0 0.0
2018-May-18 19:00N 33°44' W 118°16'0 0.0
2018-May-18 18:30N 33°44' W 118°16'0 0.0
2018-May-18 18:00N 33°44' W 118°16'0 0.8
2018-May-18 17:30N 33°44' W 118°17'0 0.1
2018-May-18 17:00N 33°44' W 118°16'4 8.2
2018-May-18 16:30N 33°41' W 118°13'7 6.8
2018-May-18 15:26N 33°35' W 118°08'615.1
2018-May-18 15:00N 33°40' W 118°13'5 9.9
2018-May-18 14:30N 33°44' W 118°16'2 3.2
2018-May-18 14:00N 33°43' W 118°15'6 3.9
2018-May-18 12:33N 33°38' W 118°11'116.9
2018-May-18 12:30N 33°39' W 118°12'713.1
2018-May-18 12:00N 33°44' W 118°16'0 0.0
2018-May-18 02:20N 33°44' W 118°16'2 7.3
2018-May-18 02:00N 33°42' W 118°14'7 5.6
2018-May-18 00:50N 33°37' W 118°09'516.4
2018-May-18 00:31N 33°41' W 118°13'4 6.9
2018-May-17 23:58N 33°44' W 118°16'2 3.7
2018-May-17 23:30N 33°43' W 118°15'10 5.0
2018-May-17 21:31N 33°35' W 118°08'1 7.5
2018-May-17 21:20N 33°36' W 118°09'516.3
2018-May-17 21:00N 33°40' W 118°13'5 9.8
2018-May-17 20:31N 33°44' W 118°16'2 4.2
2018-May-17 20:00N 33°42' W 118°15'7 4.1
2018-May-17 18:14N 33°36' W 118°10'415.9
2018-May-17 18:00N 33°39' W 118°12'611.5
2018-May-17 17:31N 33°44' W 118°16'1 2.6
2018-May-17 17:00N 33°43' W 118°16'12 9.5
2018-May-17 15:48N 33°34' W 118°07'2 5.3
2018-May-17 15:28N 33°35' W 118°08'715.9
2018-May-17 15:01N 33°41' W 118°13'4 7.5
2018-May-17 14:30N 33°44' W 118°16'1 2.1
2018-May-17 14:00N 33°43' W 118°16'8 5.5
2018-May-17 12:36N 33°37' W 118°10'216.2
2018-May-17 12:30N 33°39' W 118°11'713.7
2018-May-17 12:00N 33°44' W 118°16'0 0.0
2018-May-17 02:03N 33°44' W 118°16'0 0.0
2018-May-17 02:00N 33°44' W 118°16'5 9.4
2018-May-17 01:30N 33°40' W 118°13'710.4
2018-May-17 00:51N 33°35' W 118°08'0 0.6
2018-May-17 00:30N 33°35' W 118°08'611.5
2018-May-17 00:00N 33°39' W 118°12'612.2
2018-May-16 23:30N 33°44' W 118°16'0 0.0
2018-May-16 23:00N 33°44' W 118°16'0 0.8
2018-May-16 22:31N 33°44' W 118°16'1 1.5
2018-May-16 22:00N 33°43' W 118°16'11 8.6
2018-May-16 20:46N 33°35' W 118°08'414.9
2018-May-16 20:30N 33°38' W 118°11'714.9
2018-May-16 20:01N 33°44' W 118°16'0 0.5
2018-May-16 19:30N 33°44' W 118°16'11 3.3
2018-May-16 16:02N 33°35' W 118°08'0 0.2
2018-May-16 15:39N 33°35' W 118°08'0 0.6
2018-May-16 15:29N 33°35' W 118°08'714.3
2018-May-16 15:00N 33°40' W 118°13'5 9.5
2018-May-16 14:30N 33°44' W 118°16'1 1.0
2018-May-16 14:00N 33°44' W 118°16'1113.8
2018-May-16 13:12N 33°35' W 118°08'0 0.4
2018-May-16 12:43N 33°35' W 118°08'616.3
2018-May-16 12:22N 33°40' W 118°12'514.7
2018-May-16 12:00N 33°44' W 118°16'  

Dump ship's entire track history